sensor_id;sensor_type;location;lat;lon;timestamp;temperature;humidity
11965;DHT22;6042;41.326;19.826;2023-11-19T00:01:15;6.00;99.90
11965;DHT22;6042;41.326;19.826;2023-11-19T00:03:44;6.00;99.90
11965;DHT22;6042;41.326;19.826;2023-11-19T00:06:16;6.20;99.90
11965;DHT22;6042;41.326;19.826;2023-11-19T00:08:45;6.10;99.90
11965;DHT22;6042;41.326;19.826;2023-11-19T00:11:14;5.90;99.90
11965;DHT22;6042;41.326;19.826;2023-11-19T00:13:43;5.90;99.90
11965;DHT22;6042;41.326;19.826;2023-11-19T00:16:12;6.00;99.90
11965;DHT22;6042;41.326;19.826;2023-11-19T00:18:42;5.90;99.90
11965;DHT22;6042;41.326;19.826;2023-11-19T00:21:11;5.80;99.90
11965;DHT22;6042;41.326;19.826;2023-11-19T00:23:39;6.00;99.90
11965;DHT22;6042;41.326;19.826;2023-11-19T00:26:08;5.90;99.90
11965;DHT22;6042;41.326;19.826;2023-11-19T00:28:37;5.90;99.90
11965;DHT22;6042;41.326;19.826;2023-11-19T00:31:07;6.00;99.90
11965;DHT22;6042;41.326;19.826;2023-11-19T00:33:36;6.10;99.90
11965;DHT22;6042;41.326;19.826;2023-11-19T00:36:18;6.10;99.90
11965;DHT22;6042;41.326;19.826;2023-11-19T00:38:47;6.10;99.90
11965;DHT22;6042;41.326;19.826;2023-11-19T00:41:16;6.20;99.90
11965;DHT22;6042;41.326;19.826;2023-11-19T00:43:44;6.20;99.90
11965;DHT22;6042;41.326;19.826;2023-11-19T00:46:13;6.30;99.90
11965;DHT22;6042;41.326;19.826;2023-11-19T00:48:42;6.20;99.90
11965;DHT22;6042;41.326;19.826;2023-11-19T00:51:11;5.80;99.90
11965;DHT22;6042;41.326;19.826;2023-11-19T00:53:42;5.50;99.90
11965;DHT22;6042;41.326;19.826;2023-11-19T00:56:11;5.40;99.90
11965;DHT22;6042;41.326;19.826;2023-11-19T00:58:40;5.50;99.90
11965;DHT22;6042;41.326;19.826;2023-11-19T01:01:09;5.40;99.90
11965;DHT22;6042;41.326;19.826;2023-11-19T01:03:39;5.40;99.90
11965;DHT22;6042;41.326;19.826;2023-11-19T01:06:08;5.50;99.90
11965;DHT22;6042;41.326;19.826;2023-11-19T01:08:37;5.70;99.90
11965;DHT22;6042;41.326;19.826;2023-11-19T01:11:08;5.90;99.90
11965;DHT22;6042;41.326;19.826;2023-11-19T01:13:38;5.80;99.90
11965;DHT22;6042;41.326;19.826;2023-11-19T01:16:07;5.90;99.90
11965;DHT22;6042;41.326;19.826;2023-11-19T01:18:37;5.80;99.90
11965;DHT22;6042;41.326;19.826;2023-11-19T01:21:07;5.70;99.90
11965;DHT22;6042;41.326;19.826;2023-11-19T01:23:36;5.80;99.90
11965;DHT22;6042;41.326;19.826;2023-11-19T01:26:05;5.80;99.90
11965;DHT22;6042;41.326;19.826;2023-11-19T01:28:39;5.80;99.90
11965;DHT22;6042;41.326;19.826;2023-11-19T01:31:15;5.80;99.90
11965;DHT22;6042;41.326;19.826;2023-11-19T01:33:44;5.40;99.90
11965;DHT22;6042;41.326;19.826;2023-11-19T01:36:14;5.30;99.90
11965;DHT22;6042;41.326;19.826;2023-11-19T01:38:42;5.00;99.90
11965;DHT22;6042;41.326;19.826;2023-11-19T01:41:11;4.90;99.90
11965;DHT22;6042;41.326;19.826;2023-11-19T01:43:41;5.00;99.90
11965;DHT22;6042;41.326;19.826;2023-11-19T01:46:10;4.90;99.90
11965;DHT22;6042;41.326;19.826;2023-11-19T01:48:42;5.00;99.90
11965;DHT22;6042;41.326;19.826;2023-11-19T01:51:12;4.90;99.90
11965;DHT22;6042;41.326;19.826;2023-11-19T01:53:44;5.10;99.90
11965;DHT22;6042;41.326;19.826;2023-11-19T01:56:14;5.20;99.90
11965;DHT22;6042;41.326;19.826;2023-11-19T01:58:45;5.20;99.90
11965;DHT22;6042;41.326;19.826;2023-11-19T02:01:15;5.20;99.90
11965;DHT22;6042;41.326;19.826;2023-11-19T02:03:43;4.90;99.90
11965;DHT22;6042;41.326;19.826;2023-11-19T02:06:14;5.00;99.90
11965;DHT22;6042;41.326;19.826;2023-11-19T02:08:43;5.00;99.90
11965;DHT22;6042;41.326;19.826;2023-11-19T02:11:12;5.20;99.90
11965;DHT22;6042;41.326;19.826;2023-11-19T02:13:41;5.10;99.90
11965;DHT22;6042;41.326;19.826;2023-11-19T02:16:12;5.00;99.90
11965;DHT22;6042;41.326;19.826;2023-11-19T02:18:42;4.90;99.90
11965;DHT22;6042;41.326;19.826;2023-11-19T02:21:11;4.80;99.90
11965;DHT22;6042;41.326;19.826;2023-11-19T02:23:42;4.50;99.90
11965;DHT22;6042;41.326;19.826;2023-11-19T02:26:14;4.00;99.90
11965;DHT22;6042;41.326;19.826;2023-11-19T02:28:46;4.10;99.90
11965;DHT22;6042;41.326;19.826;2023-11-19T02:31:15;4.10;99.90
11965;DHT22;6042;41.326;19.826;2023-11-19T02:33:44;4.20;99.90
11965;DHT22;6042;41.326;19.826;2023-11-19T02:36:13;4.30;99.90
11965;DHT22;6042;41.326;19.826;2023-11-19T02:38:44;4.20;99.90
11965;DHT22;6042;41.326;19.826;2023-11-19T02:41:14;4.30;99.90
11965;DHT22;6042;41.326;19.826;2023-11-19T02:43:43;4.50;99.90
11965;DHT22;6042;41.326;19.826;2023-11-19T02:46:13;4.40;99.90
11965;DHT22;6042;41.326;19.826;2023-11-19T02:48:42;4.20;99.90
11965;DHT22;6042;41.326;19.826;2023-11-19T02:51:11;4.10;99.90
11965;DHT22;6042;41.326;19.826;2023-11-19T02:53:40;4.20;99.90
11965;DHT22;6042;41.326;19.826;2023-11-19T02:56:11;4.20;99.90
11965;DHT22;6042;41.326;19.826;2023-11-19T02:58:47;4.20;99.90
11965;DHT22;6042;41.326;19.826;2023-11-19T03:01:23;4.10;99.90
11965;DHT22;6042;41.326;19.826;2023-11-19T03:04:00;4.10;99.90
11965;DHT22;6042;41.326;19.826;2023-11-19T03:06:30;4.20;99.90
11965;DHT22;6042;41.326;19.826;2023-11-19T03:08:59;4.20;99.90
11965;DHT22;6042;41.326;19.826;2023-11-19T03:11:33;4.20;99.90
11965;DHT22;6042;41.326;19.826;2023-11-19T03:14:02;4.20;99.90
11965;DHT22;6042;41.326;19.826;2023-11-19T03:16:33;4.00;99.90
11965;DHT22;6042;41.326;19.826;2023-11-19T03:19:02;3.90;99.90
11965;DHT22;6042;41.326;19.826;2023-11-19T03:21:31;3.90;99.90
11965;DHT22;6042;41.326;19.826;2023-11-19T03:24:00;4.00;99.90
11965;DHT22;6042;41.326;19.826;2023-11-19T03:26:29;4.00;99.90
11965;DHT22;6042;41.326;19.826;2023-11-19T03:28:58;4.00;99.90
11965;DHT22;6042;41.326;19.826;2023-11-19T03:31:26;3.90;99.90
11965;DHT22;6042;41.326;19.826;2023-11-19T03:33:56;4.00;99.90
11965;DHT22;6042;41.326;19.826;2023-11-19T03:36:32;4.00;99.90
11965;DHT22;6042;41.326;19.826;2023-11-19T03:39:01;4.00;99.90
11965;DHT22;6042;41.326;19.826;2023-11-19T03:41:30;4.00;99.90
11965;DHT22;6042;41.326;19.826;2023-11-19T03:44:02;4.10;99.90
11965;DHT22;6042;41.326;19.826;2023-11-19T03:46:31;3.90;99.90
11965;DHT22;6042;41.326;19.826;2023-11-19T03:49:01;3.90;99.90
11965;DHT22;6042;41.326;19.826;2023-11-19T03:51:32;3.70;99.90
11965;DHT22;6042;41.326;19.826;2023-11-19T03:54:02;3.60;99.90
11965;DHT22;6042;41.326;19.826;2023-11-19T03:56:30;3.60;99.90
11965;DHT22;6042;41.326;19.826;2023-11-19T03:59:00;3.50;99.90
11965;DHT22;6042;41.326;19.826;2023-11-19T04:01:28;3.40;99.90
11965;DHT22;6042;41.326;19.826;2023-11-19T04:03:57;3.50;99.90
11965;DHT22;6042;41.326;19.826;2023-11-19T04:06:28;3.70;99.90
11965;DHT22;6042;41.326;19.826;2023-11-19T04:08:56;3.70;99.90
11965;DHT22;6042;41.326;19.826;2023-11-19T04:11:25;3.60;99.90
11965;DHT22;6042;41.326;19.826;2023-11-19T04:13:53;3.70;99.90
11965;DHT22;6042;41.326;19.826;2023-11-19T04:16:26;3.70;99.90
11965;DHT22;6042;41.326;19.826;2023-11-19T04:18:56;3.60;99.90
11965;DHT22;6042;41.326;19.826;2023-11-19T04:21:25;3.50;99.90
11965;DHT22;6042;41.326;19.826;2023-11-19T04:23:55;3.60;99.90
11965;DHT22;6042;41.326;19.826;2023-11-19T04:26:24;3.60;99.90
11965;DHT22;6042;41.326;19.826;2023-11-19T04:28:56;3.70;99.90
11965;DHT22;6042;41.326;19.826;2023-11-19T04:31:29;3.70;99.90
11965;DHT22;6042;41.326;19.826;2023-11-19T04:33:59;3.70;99.90
11965;DHT22;6042;41.326;19.826;2023-11-19T04:36:28;3.70;99.90
11965;DHT22;6042;41.326;19.826;2023-11-19T04:38:58;3.70;99.90
11965;DHT22;6042;41.326;19.826;2023-11-19T04:41:27;3.70;99.90
11965;DHT22;6042;41.326;19.826;2023-11-19T04:43:56;3.70;99.90
11965;DHT22;6042;41.326;19.826;2023-11-19T04:46:24;3.60;99.90
11965;DHT22;6042;41.326;19.826;2023-11-19T04:48:53;3.50;99.90
11965;DHT22;6042;41.326;19.826;2023-11-19T04:51:22;3.60;99.90
11965;DHT22;6042;41.326;19.826;2023-11-19T04:53:51;3.70;99.90
11965;DHT22;6042;41.326;19.826;2023-11-19T04:56:21;3.70;99.90
11965;DHT22;6042;41.326;19.826;2023-11-19T04:58:50;3.80;99.90
11965;DHT22;6042;41.326;19.826;2023-11-19T05:01:18;3.70;99.90
11965;DHT22;6042;41.326;19.826;2023-11-19T05:03:47;3.60;99.90
11965;DHT22;6042;41.326;19.826;2023-11-19T05:06:16;3.40;99.90
11965;DHT22;6042;41.326;19.826;2023-11-19T05:08:46;3.40;99.90
11965;DHT22;6042;41.326;19.826;2023-11-19T05:11:14;3.40;99.90
11965;DHT22;6042;41.326;19.826;2023-11-19T05:13:47;3.40;99.90
11965;DHT22;6042;41.326;19.826;2023-11-19T05:16:16;3.40;99.90
11965;DHT22;6042;41.326;19.826;2023-11-19T05:18:45;3.30;99.90
11965;DHT22;6042;41.326;19.826;2023-11-19T05:21:13;3.30;99.90
11965;DHT22;6042;41.326;19.826;2023-11-19T05:23:42;3.30;99.90
11965;DHT22;6042;41.326;19.826;2023-11-19T05:26:17;3.30;99.90
11965;DHT22;6042;41.326;19.826;2023-11-19T05:28:48;3.30;99.90
11965;DHT22;6042;41.326;19.826;2023-11-19T05:31:18;3.30;99.90
11965;DHT22;6042;41.326;19.826;2023-11-19T05:33:46;3.30;99.90
11965;DHT22;6042;41.326;19.826;2023-11-19T05:36:15;3.20;99.90
11965;DHT22;6042;41.326;19.826;2023-11-19T05:38:44;3.30;99.90
11965;DHT22;6042;41.326;19.826;2023-11-19T05:41:13;3.30;99.90
11965;DHT22;6042;41.326;19.826;2023-11-19T05:43:42;3.30;99.90
11965;DHT22;6042;41.326;19.826;2023-11-19T05:46:12;3.10;99.90
11965;DHT22;6042;41.326;19.826;2023-11-19T05:48:43;3.00;99.90
11965;DHT22;6042;41.326;19.826;2023-11-19T05:51:14;3.00;99.90
11965;DHT22;6042;41.326;19.826;2023-11-19T05:53:44;3.10;99.90
11965;DHT22;6042;41.326;19.826;2023-11-19T05:56:13;3.20;99.90
11965;DHT22;6042;41.326;19.826;2023-11-19T05:58:43;3.50;99.90
11965;DHT22;6042;41.326;19.826;2023-11-19T06:01:14;3.70;99.90
11965;DHT22;6042;41.326;19.826;2023-11-19T06:03:42;3.90;99.90
11965;DHT22;6042;41.326;19.826;2023-11-19T06:06:15;4.10;99.90
11965;DHT22;6042;41.326;19.826;2023-11-19T06:08:43;4.30;99.90
11965;DHT22;6042;41.326;19.826;2023-11-19T06:11:13;4.40;99.90
11965;DHT22;6042;41.326;19.826;2023-11-19T06:13:46;4.50;99.90
11965;DHT22;6042;41.326;19.826;2023-11-19T06:16:20;4.40;99.90
11965;DHT22;6042;41.326;19.826;2023-11-19T06:18:48;4.50;99.90
11965;DHT22;6042;41.326;19.826;2023-11-19T06:21:17;4.50;99.90
11965;DHT22;6042;41.326;19.826;2023-11-19T06:23:46;4.60;99.90
11965;DHT22;6042;41.326;19.826;2023-11-19T06:26:16;4.70;99.90
11965;DHT22;6042;41.326;19.826;2023-11-19T06:28:44;4.80;99.90
11965;DHT22;6042;41.326;19.826;2023-11-19T06:31:13;4.80;99.90
11965;DHT22;6042;41.326;19.826;2023-11-19T06:33:44;4.80;99.90
11965;DHT22;6042;41.326;19.826;2023-11-19T06:36:14;4.90;99.90
11965;DHT22;6042;41.326;19.826;2023-11-19T06:38:44;4.90;99.90
11965;DHT22;6042;41.326;19.826;2023-11-19T06:41:13;4.90;99.90
11965;DHT22;6042;41.326;19.826;2023-11-19T06:43:42;4.90;99.90
11965;DHT22;6042;41.326;19.826;2023-11-19T06:46:16;5.10;99.90
11965;DHT22;6042;41.326;19.826;2023-11-19T06:48:47;5.30;99.90
11965;DHT22;6042;41.326;19.826;2023-11-19T06:51:16;5.50;99.90
11965;DHT22;6042;41.326;19.826;2023-11-19T06:53:44;5.60;99.90
11965;DHT22;6042;41.326;19.826;2023-11-19T06:56:20;5.70;99.90
11965;DHT22;6042;41.326;19.826;2023-11-19T06:58:51;5.80;99.90
11965;DHT22;6042;41.326;19.826;2023-11-19T07:01:20;5.90;99.90
11965;DHT22;6042;41.326;19.826;2023-11-19T07:03:50;5.90;99.90
11965;DHT22;6042;41.326;19.826;2023-11-19T07:06:19;6.00;99.90
11965;DHT22;6042;41.326;19.826;2023-11-19T07:09:01;6.00;99.90
11965;DHT22;6042;41.326;19.826;2023-11-19T07:11:37;6.00;99.90
11965;DHT22;6042;41.326;19.826;2023-11-19T07:14:06;5.90;99.90
11965;DHT22;6042;41.326;19.826;2023-11-19T07:16:36;5.90;99.90
11965;DHT22;6042;41.326;19.826;2023-11-19T07:19:07;5.90;99.90
11965;DHT22;6042;41.326;19.826;2023-11-19T07:21:36;6.10;99.90
11965;DHT22;6042;41.326;19.826;2023-11-19T07:24:07;6.40;99.90
11965;DHT22;6042;41.326;19.826;2023-11-19T07:26:36;6.60;99.90
11965;DHT22;6042;41.326;19.826;2023-11-19T07:29:08;6.70;99.90
11965;DHT22;6042;41.326;19.826;2023-11-19T07:31:36;6.80;99.90
11965;DHT22;6042;41.326;19.826;2023-11-19T07:34:06;6.80;99.90
11965;DHT22;6042;41.326;19.826;2023-11-19T07:36:36;7.10;99.90
11965;DHT22;6042;41.326;19.826;2023-11-19T07:39:05;7.30;99.90
11965;DHT22;6042;41.326;19.826;2023-11-19T07:41:34;7.40;99.90
11965;DHT22;6042;41.326;19.826;2023-11-19T07:44:05;7.50;99.90
11965;DHT22;6042;41.326;19.826;2023-11-19T07:46:34;7.70;99.90
11965;DHT22;6042;41.326;19.826;2023-11-19T07:49:03;7.90;99.90
11965;DHT22;6042;41.326;19.826;2023-11-19T07:51:33;8.00;99.90
11965;DHT22;6042;41.326;19.826;2023-11-19T07:54:01;8.10;99.90
11965;DHT22;6042;41.326;19.826;2023-11-19T07:56:32;8.30;99.90
11965;DHT22;6042;41.326;19.826;2023-11-19T07:59:01;8.40;99.90
11965;DHT22;6042;41.326;19.826;2023-11-19T08:01:30;8.50;99.70
11965;DHT22;6042;41.326;19.826;2023-11-19T08:03:59;8.50;99.80
11965;DHT22;6042;41.326;19.826;2023-11-19T08:06:29;8.60;99.80
11965;DHT22;6042;41.326;19.826;2023-11-19T08:08:59;8.80;99.70
11965;DHT22;6042;41.326;19.826;2023-11-19T08:11:28;8.90;99.50
11965;DHT22;6042;41.326;19.826;2023-11-19T08:13:57;8.90;98.20
11965;DHT22;6042;41.326;19.826;2023-11-19T08:16:26;8.90;98.40
11965;DHT22;6042;41.326;19.826;2023-11-19T08:18:54;8.90;98.40
11965;DHT22;6042;41.326;19.826;2023-11-19T08:21:25;8.70;97.90
11965;DHT22;6042;41.326;19.826;2023-11-19T08:23:54;8.80;97.50
11965;DHT22;6042;41.326;19.826;2023-11-19T08:26:24;8.90;96.60
11965;DHT22;6042;41.326;19.826;2023-11-19T08:28:53;9.10;96.90
11965;DHT22;6042;41.326;19.826;2023-11-19T08:31:21;9.20;96.30
11965;DHT22;6042;41.326;19.826;2023-11-19T08:33:50;9.30;96.00
11965;DHT22;6042;41.326;19.826;2023-11-19T08:36:19;9.40;96.30
11965;DHT22;6042;41.326;19.826;2023-11-19T08:38:48;9.50;96.20
11965;DHT22;6042;41.326;19.826;2023-11-19T08:41:16;9.60;96.10
11965;DHT22;6042;41.326;19.826;2023-11-19T08:43:48;9.70;96.50
11965;DHT22;6042;41.326;19.826;2023-11-19T08:46:20;9.60;96.70
11965;DHT22;6042;41.326;19.826;2023-11-19T08:48:49;9.60;96.40
11965;DHT22;6042;41.326;19.826;2023-11-19T08:51:17;9.70;96.80
11965;DHT22;6042;41.326;19.826;2023-11-19T08:53:46;9.80;96.40
11965;DHT22;6042;41.326;19.826;2023-11-19T08:56:15;9.90;96.50
11965;DHT22;6042;41.326;19.826;2023-11-19T08:58:43;9.90;95.50
11965;DHT22;6042;41.326;19.826;2023-11-19T09:01:14;9.90;95.80
11965;DHT22;6042;41.326;19.826;2023-11-19T09:03:43;10.00;95.00
11965;DHT22;6042;41.326;19.826;2023-11-19T09:06:11;10.20;94.70
11965;DHT22;6042;41.326;19.826;2023-11-19T09:08:41;10.20;94.50
11965;DHT22;6042;41.326;19.826;2023-11-19T09:11:10;10.20;92.90
11965;DHT22;6042;41.326;19.826;2023-11-19T09:13:39;9.90;92.90
11965;DHT22;6042;41.326;19.826;2023-11-19T09:16:08;9.90;93.40
11965;DHT22;6042;41.326;19.826;2023-11-19T09:18:38;9.90;93.30
11965;DHT22;6042;41.326;19.826;2023-11-19T09:21:06;10.00;93.10
11965;DHT22;6042;41.326;19.826;2023-11-19T09:23:36;10.10;93.00
11965;DHT22;6042;41.326;19.826;2023-11-19T09:26:08;10.30;92.40
11965;DHT22;6042;41.326;19.826;2023-11-19T09:28:37;10.20;91.10
11965;DHT22;6042;41.326;19.826;2023-11-19T09:31:13;10.30;91.00
11965;DHT22;6042;41.326;19.826;2023-11-19T09:33:44;10.40;91.30
11965;DHT22;6042;41.326;19.826;2023-11-19T09:36:17;10.50;91.20
11965;DHT22;6042;41.326;19.826;2023-11-19T09:38:47;10.60;90.00
11965;DHT22;6042;41.326;19.826;2023-11-19T09:41:16;10.60;90.60
11965;DHT22;6042;41.326;19.826;2023-11-19T09:43:47;10.50;91.80
11965;DHT22;6042;41.326;19.826;2023-11-19T09:46:16;10.50;92.10
11965;DHT22;6042;41.326;19.826;2023-11-19T09:48:46;10.70;92.60
11965;DHT22;6042;41.326;19.826;2023-11-19T09:51:20;10.70;91.80
11965;DHT22;6042;41.326;19.826;2023-11-19T09:53:49;11.00;91.60
11965;DHT22;6042;41.326;19.826;2023-11-19T09:56:18;11.00;91.90
11965;DHT22;6042;41.326;19.826;2023-11-19T09:58:47;11.10;91.70
11965;DHT22;6042;41.326;19.826;2023-11-19T10:01:16;11.10;91.60
11965;DHT22;6042;41.326;19.826;2023-11-19T10:03:56;11.10;91.20
11965;DHT22;6042;41.326;19.826;2023-11-19T10:06:25;11.20;91.40
11965;DHT22;6042;41.326;19.826;2023-11-19T10:08:55;11.30;91.00
11965;DHT22;6042;41.326;19.826;2023-11-19T10:11:24;11.50;91.10
11965;DHT22;6042;41.326;19.826;2023-11-19T10:13:53;11.70;91.00
11965;DHT22;6042;41.326;19.826;2023-11-19T10:16:29;11.80;90.00
11965;DHT22;6042;41.326;19.826;2023-11-19T10:19:02;11.90;89.80
11965;DHT22;6042;41.326;19.826;2023-11-19T10:21:33;12.10;89.80
11965;DHT22;6042;41.326;19.826;2023-11-19T10:24:02;12.10;90.20
11965;DHT22;6042;41.326;19.826;2023-11-19T10:26:31;12.20;88.60
11965;DHT22;6042;41.326;19.826;2023-11-19T10:29:01;12.30;85.00
11965;DHT22;6042;41.326;19.826;2023-11-19T10:31:31;12.40;84.80
11965;DHT22;6042;41.326;19.826;2023-11-19T10:33:59;12.30;86.10
11965;DHT22;6042;41.326;19.826;2023-11-19T10:36:39;12.20;85.90
11965;DHT22;6042;41.326;19.826;2023-11-19T10:39:10;12.20;82.30
11965;DHT22;6042;41.326;19.826;2023-11-19T10:41:40;12.20;77.70
11965;DHT22;6042;41.326;19.826;2023-11-19T10:44:09;12.30;76.40
11965;DHT22;6042;41.326;19.826;2023-11-19T10:46:38;12.50;76.20
11965;DHT22;6042;41.326;19.826;2023-11-19T10:49:08;12.50;78.70
11965;DHT22;6042;41.326;19.826;2023-11-19T10:51:44;12.50;79.50
11965;DHT22;6042;41.326;19.826;2023-11-19T10:54:16;12.80;78.70
11965;DHT22;6042;41.326;19.826;2023-11-19T10:56:53;12.60;79.30
11965;DHT22;6042;41.326;19.826;2023-11-19T10:59:23;11.80;82.40
11965;DHT22;6042;41.326;19.826;2023-11-19T11:02:03;11.50;83.60
11965;DHT22;6042;41.326;19.826;2023-11-19T11:04:33;11.50;78.60
11965;DHT22;6042;41.326;19.826;2023-11-19T11:07:07;11.70;80.10
11965;DHT22;6042;41.326;19.826;2023-11-19T11:09:36;11.80;79.50
11965;DHT22;6042;41.326;19.826;2023-11-19T11:12:06;11.80;81.20
11965;DHT22;6042;41.326;19.826;2023-11-19T11:14:38;11.90;79.30
11965;DHT22;6042;41.326;19.826;2023-11-19T11:17:09;11.90;78.40
11965;DHT22;6042;41.326;19.826;2023-11-19T11:19:42;11.90;78.20
11965;DHT22;6042;41.326;19.826;2023-11-19T11:22:14;11.90;78.90
11965;DHT22;6042;41.326;19.826;2023-11-19T11:25:21;11.90;79.70
11965;DHT22;6042;41.326;19.826;2023-11-19T11:28:01;12.00;77.80
11965;DHT22;6042;41.326;19.826;2023-11-19T11:30:44;12.00;76.80
11965;DHT22;6042;41.326;19.826;2023-11-19T11:33:28;12.10;76.60
11965;DHT22;6042;41.326;19.826;2023-11-19T11:36:10;12.10;77.10
11965;DHT22;6042;41.326;19.826;2023-11-19T11:38:42;12.20;76.00
11965;DHT22;6042;41.326;19.826;2023-11-19T11:41:16;12.50;75.20
11965;DHT22;6042;41.326;19.826;2023-11-19T11:43:47;12.50;76.30
11965;DHT22;6042;41.326;19.826;2023-11-19T11:46:54;12.60;75.10
11965;DHT22;6042;41.326;19.826;2023-11-19T11:49:27;12.60;75.00
11965;DHT22;6042;41.326;19.826;2023-11-19T11:52:03;12.40;75.10
11965;DHT22;6042;41.326;19.826;2023-11-19T11:54:34;12.30;75.80
11965;DHT22;6042;41.326;19.826;2023-11-19T11:57:06;12.20;77.70
11965;DHT22;6042;41.326;19.826;2023-11-19T11:59:46;12.30;78.10
11965;DHT22;6042;41.326;19.826;2023-11-19T12:02:17;12.10;80.20
11965;DHT22;6042;41.326;19.826;2023-11-19T12:04:49;12.20;78.70
11965;DHT22;6042;41.326;19.826;2023-11-19T12:07:21;12.20;78.50
11965;DHT22;6042;41.326;19.826;2023-11-19T12:10:05;12.30;78.20
11965;DHT22;6042;41.326;19.826;2023-11-19T12:12:40;12.30;78.20
11965;DHT22;6042;41.326;19.826;2023-11-19T12:15:09;12.40;77.60
11965;DHT22;6042;41.326;19.826;2023-11-19T12:17:43;12.40;77.40
11965;DHT22;6042;41.326;19.826;2023-11-19T12:20:18;12.40;76.60
11965;DHT22;6042;41.326;19.826;2023-11-19T12:22:50;12.30;76.10
11965;DHT22;6042;41.326;19.826;2023-11-19T12:25:20;12.40;75.50
11965;DHT22;6042;41.326;19.826;2023-11-19T12:27:50;12.30;74.80
11965;DHT22;6042;41.326;19.826;2023-11-19T12:30:22;12.30;76.40
11965;DHT22;6042;41.326;19.826;2023-11-19T12:32:53;12.30;74.80
11965;DHT22;6042;41.326;19.826;2023-11-19T12:35:23;12.30;76.00
11965;DHT22;6042;41.326;19.826;2023-11-19T12:37:52;12.30;77.30
11965;DHT22;6042;41.326;19.826;2023-11-19T12:40:23;12.40;76.60
11965;DHT22;6042;41.326;19.826;2023-11-19T12:42:53;12.30;77.70
11965;DHT22;6042;41.326;19.826;2023-11-19T12:45:22;12.30;77.90
11965;DHT22;6042;41.326;19.826;2023-11-19T12:48:04;12.20;76.50
11965;DHT22;6042;41.326;19.826;2023-11-19T12:50:51;11.90;77.10
11965;DHT22;6042;41.326;19.826;2023-11-19T12:53:21;11.90;78.80
11965;DHT22;6042;41.326;19.826;2023-11-19T12:55:52;11.90;79.50
11965;DHT22;6042;41.326;19.826;2023-11-19T12:58:29;11.70;78.10
11965;DHT22;6042;41.326;19.826;2023-11-19T13:01:02;11.70;78.60
11965;DHT22;6042;41.326;19.826;2023-11-19T13:03:34;11.80;79.00
11965;DHT22;6042;41.326;19.826;2023-11-19T13:06:03;11.70;79.90
11965;DHT22;6042;41.326;19.826;2023-11-19T13:08:39;11.60;79.20
11965;DHT22;6042;41.326;19.826;2023-11-19T13:11:09;11.60;78.50
11965;DHT22;6042;41.326;19.826;2023-11-19T13:13:54;11.50;78.90
11965;DHT22;6042;41.326;19.826;2023-11-19T13:16:25;11.40;79.40
11965;DHT22;6042;41.326;19.826;2023-11-19T13:18:54;11.50;80.00
11965;DHT22;6042;41.326;19.826;2023-11-19T13:21:25;11.50;78.00
11965;DHT22;6042;41.326;19.826;2023-11-19T13:23:54;11.40;79.20
11965;DHT22;6042;41.326;19.826;2023-11-19T13:26:24;11.40;80.30
11965;DHT22;6042;41.326;19.826;2023-11-19T13:28:53;11.50;80.70
11965;DHT22;6042;41.326;19.826;2023-11-19T13:31:23;11.50;79.60
11965;DHT22;6042;41.326;19.826;2023-11-19T13:33:52;11.50;81.60
11965;DHT22;6042;41.326;19.826;2023-11-19T13:36:21;11.40;82.10
11965;DHT22;6042;41.326;19.826;2023-11-19T13:38:52;11.30;79.50
11965;DHT22;6042;41.326;19.826;2023-11-19T13:41:28;11.40;79.80
11965;DHT22;6042;41.326;19.826;2023-11-19T13:43:56;11.40;80.40
11965;DHT22;6042;41.326;19.826;2023-11-19T13:46:25;11.50;79.00
11965;DHT22;6042;41.326;19.826;2023-11-19T13:48:54;11.60;78.80
11965;DHT22;6042;41.326;19.826;2023-11-19T13:51:23;11.30;81.20
11965;DHT22;6042;41.326;19.826;2023-11-19T13:53:52;11.40;82.40
11965;DHT22;6042;41.326;19.826;2023-11-19T13:56:21;11.40;81.00
11965;DHT22;6042;41.326;19.826;2023-11-19T13:58:52;11.50;81.80
11965;DHT22;6042;41.326;19.826;2023-11-19T14:01:30;11.40;81.10
11965;DHT22;6042;41.326;19.826;2023-11-19T14:03:59;11.40;82.00
11965;DHT22;6042;41.326;19.826;2023-11-19T14:06:28;11.40;81.40
11965;DHT22;6042;41.326;19.826;2023-11-19T14:08:57;11.20;90.70
11965;DHT22;6042;41.326;19.826;2023-11-19T14:11:25;11.20;90.30
11965;DHT22;6042;41.326;19.826;2023-11-19T14:13:55;11.20;92.30
11965;DHT22;6042;41.326;19.826;2023-11-19T14:16:26;11.20;89.70
11965;DHT22;6042;41.326;19.826;2023-11-19T14:18:55;11.20;92.80
11965;DHT22;6042;41.326;19.826;2023-11-19T14:21:24;11.10;91.50
11965;DHT22;6042;41.326;19.826;2023-11-19T14:23:55;11.10;90.10
11965;DHT22;6042;41.326;19.826;2023-11-19T14:26:24;11.10;88.60
11965;DHT22;6042;41.326;19.826;2023-11-19T14:28:52;11.20;86.50
11965;DHT22;6042;41.326;19.826;2023-11-19T14:31:27;11.20;86.50
11965;DHT22;6042;41.326;19.826;2023-11-19T14:33:56;11.30;88.00
11965;DHT22;6042;41.326;19.826;2023-11-19T14:36:25;11.00;90.50
11965;DHT22;6042;41.326;19.826;2023-11-19T14:38:54;10.70;94.30
11965;DHT22;6042;41.326;19.826;2023-11-19T14:41:25;10.50;97.80
11965;DHT22;6042;41.326;19.826;2023-11-19T14:43:53;10.40;99.00
11965;DHT22;6042;41.326;19.826;2023-11-19T14:46:24;10.30;99.90
11965;DHT22;6042;41.326;19.826;2023-11-19T14:48:52;10.20;99.90
11965;DHT22;6042;41.326;19.826;2023-11-19T14:51:21;10.10;99.90
11965;DHT22;6042;41.326;19.826;2023-11-19T14:53:50;9.90;99.90
11965;DHT22;6042;41.326;19.826;2023-11-19T14:56:19;9.80;99.90
11965;DHT22;6042;41.326;19.826;2023-11-19T14:58:47;9.90;99.90
11965;DHT22;6042;41.326;19.826;2023-11-19T15:01:20;9.80;99.90
11965;DHT22;6042;41.326;19.826;2023-11-19T15:03:50;9.90;99.90
11965;DHT22;6042;41.326;19.826;2023-11-19T15:06:23;9.90;99.90
11965;DHT22;6042;41.326;19.826;2023-11-19T15:08:54;9.80;99.90
11965;DHT22;6042;41.326;19.826;2023-11-19T15:11:23;9.80;99.90
11965;DHT22;6042;41.326;19.826;2023-11-19T15:13:52;9.60;99.90
11965;DHT22;6042;41.326;19.826;2023-11-19T15:16:21;9.60;99.90
11965;DHT22;6042;41.326;19.826;2023-11-19T15:18:59;9.50;99.90
11965;DHT22;6042;41.326;19.826;2023-11-19T15:21:30;9.40;99.90
11965;DHT22;6042;41.326;19.826;2023-11-19T15:23:59;9.40;99.90
11965;DHT22;6042;41.326;19.826;2023-11-19T15:26:30;9.30;99.90
11965;DHT22;6042;41.326;19.826;2023-11-19T15:28:59;9.20;99.90
11965;DHT22;6042;41.326;19.826;2023-11-19T15:31:28;9.30;99.90
11965;DHT22;6042;41.326;19.826;2023-11-19T15:33:58;9.40;99.90
11965;DHT22;6042;41.326;19.826;2023-11-19T15:36:27;9.40;99.90
11965;DHT22;6042;41.326;19.826;2023-11-19T15:38:55;9.30;99.90
11965;DHT22;6042;41.326;19.826;2023-11-19T15:41:24;9.20;99.90
11965;DHT22;6042;41.326;19.826;2023-11-19T15:43:55;9.10;99.90
11965;DHT22;6042;41.326;19.826;2023-11-19T15:46:24;9.10;99.90
11965;DHT22;6042;41.326;19.826;2023-11-19T15:48:52;9.10;99.90
11965;DHT22;6042;41.326;19.826;2023-11-19T15:51:22;9.10;99.90
11965;DHT22;6042;41.326;19.826;2023-11-19T15:53:51;9.10;99.90
11965;DHT22;6042;41.326;19.826;2023-11-19T15:56:20;8.90;99.90
11965;DHT22;6042;41.326;19.826;2023-11-19T15:58:48;8.90;99.90
11965;DHT22;6042;41.326;19.826;2023-11-19T16:01:19;8.80;99.90